< < Back
Terminal Aerodrome Forecast


Current Version              Previous Versions:   1  2  3  4  5  6  7  8  9  

Terminal Aerodrome Forecast

339
FTUS42 KMLB 251100
TAFDAB
TAF
KDAB 251123Z 2512/2612 32007KT P6SM SCT040 SCT060
     FM251600 01010KT P6SM SCT040
     FM260000 34003KT P6SM SKC=

Latest METAR

358
SAUS80 KWBC 251300 RRA
MTRDAB
METAR KDAB 251253Z 31007KT 10SM FEW025 FEW040 17/11 A2999 RMK AO2 SLP154
T01720111


USA.gov is the U.S. government's official web portal to all federal, state and local government web resources and services.